EW9994 Weather Reports


time (UTC)temp
C
wind
direction
speed
KPH
gust
KPH
rain 1hr
cm
rain 24hr
cm
rain mn
cm
humidity
%
barometer
mb
20181019114415 24 55 9.7 19.3 0.00 0.00 0.00 47 1016.8
20181019113915 24 61 9.7 20.9 0.00 0.00 0.00 47 1016.8
20181019111914 24 53 11.3 19.3 0.00 0.00 0.00 48 1017.0
20181019111415 24 60 12.9 22.5 0.00 0.00 0.00 48 1017.0
20181019110914 24 58 8.0 16.1 0.00 0.00 0.00 48 1017.0
20181019110414 24 77 9.7 25.7 0.00 0.00 0.00 49 1017.0
20181019104915 24 62 14.5 20.9 0.00 0.00 0.00 48 1017.0
20181019104416 24 28 11.3 22.5 0.00 0.00 0.00 47 1017.1
20181019103914 24 47 9.7 19.3 0.00 0.00 0.00 48 1017.2
20181019103414 24 274 3.2 14.5 0.00 0.00 0.00 51 1017.2
20181019101915 23 265 3.2 4.8 0.00 0.00 0.00 52 1017.4
20181019101414 23 178 6.4 8.0 0.00 0.00 0.00 51 1017.5
20181019100915 23 265 3.2 4.8 0.00 0.00 0.00 52 1017.6
20181019100414 23 192 3.2 9.7 0.00 0.00 0.00 51 1017.6
20181019094915 22 275 3.2 4.8 0.00 0.00 0.00 58 1017.8
20181019094415 22 217 4.8 9.7 0.00 0.00 0.00 58 1017.8
20181019093414 22 215 4.8 9.7 0.00 0.00 0.00 59 1017.7
20181019091914 21 183 3.2 4.8 0.00 0.00 0.00 60 1017.7
20181019091415 21 151 3.2 4.8 0.00 0.00 0.00 61 1017.7
20181019090915 21 144 1.6 3.2 0.00 0.00 0.00 61 1017.7
20181019090415 20 136 1.6 3.2 0.00 0.00 0.00 63 1017.7
20181019084414 20 155 1.6 1.6 0.00 0.00 0.00 64 1017.7
20181019083914 20 166 1.6 3.2 0.00 0.00 0.00 66 1017.7
20181019083414 20 124 1.6 4.8 0.00 0.00 0.00 65 1017.7
20181019081915 19 132 0.0 1.6 0.00 0.00 0.00 69 1017.4
20181019080915 18 116 3.2 3.2 0.00 0.00 0.00 69 1017.3
20181019080414 18 112 1.6 1.6 0.00 0.00 0.00 68 1017.4
20181019074414 18 170 0.0 3.2 0.00 0.00 0.00 70 1017.3
20181019073914 18 223 3.2 4.8 0.00 0.00 0.00 70 1017.3
20181019071914 17 138 0.0 1.6 0.00 0.00 0.00 74 1017.0
20181019071415 17 138 1.6 3.2 0.00 0.00 0.00 73 1017.1
20181019064414 17 115 3.2 4.8 0.00 0.00 0.00 70 1016.8
20181019063914 17 197 1.6 4.8 0.00 0.00 0.00 69 1016.8
20181019061914 18 104 4.8 11.3 0.00 0.00 0.00 65 1016.4
20181019061414 18 56 4.8 9.7 0.00 0.00 0.00 66 1016.3
20181019060914 18 57 6.4 11.3 0.00 0.00 0.00 67 1016.3
20181019054414 17 39 3.2 11.3 0.00 0.00 0.00 68 1016.2
20181019053914 17 51 3.2 11.3 0.00 0.00 0.00 69 1016.2
20181019053413 17 15 1.6 9.7 0.00 0.00 0.00 68 1016.1
20181019051414 18 65 1.6 11.3 0.00 0.00 0.00 65 1015.9
20181019050913 18 43 4.8 12.9 0.00 0.00 0.00 64 1015.8
20181019050414 18 17 9.7 22.5 0.00 0.00 0.00 64 1015.8
20181019044914 18 67 1.6 8.0 0.00 0.00 0.00 65 1015.7
20181019043914 18 45 4.8 8.0 0.00 0.00 0.00 65 1015.5
20181019043415 18 59 3.2 20.9 0.00 0.00 0.00 65 1015.5
20181019041913 18 64 8.0 16.1 0.00 0.00 0.00 63 1015.5
20181019041414 19 56 8.0 19.3 0.00 0.00 0.00 63 1015.6
20181019040913 19 29 3.2 19.3 0.00 0.00 0.00 62 1015.6
20181019034914 19 74 19.3 27.4 0.00 0.00 0.00 63 1015.5
20181019033914 19 78 9.7 32.2 0.00 0.00 0.00 63 1015.5
20181019031414 19 12 8.0 19.3 0.00 0.00 0.00 63 1015.6
20181019030914 19 81 9.7 20.9 0.00 0.00 0.00 63 1015.7
20181019030413 19 72 9.7 32.2 0.00 0.00 0.00 62 1015.7
20181019024914 19 82 9.7 20.9 0.00 0.00 0.00 64 1015.7
20181019024414 19 62 11.3 20.9 0.00 0.00 0.00 64 1015.5
20181019023414 19 81 14.5 38.6 0.00 0.00 0.00 64 1015.5
20181019021914 19 45 14.5 27.4 0.00 0.00 0.00 63 1015.5
20181019021413 19 66 14.5 27.4 0.00 0.00 0.00 64 1015.5
20181019020914 19 61 4.8 19.3 0.00 0.00 0.00 64 1015.5
20181019020413 19 61 14.5 25.7 0.00 0.00 0.00 65 1015.5
20181019014913 18 61 3.2 11.3 0.00 0.00 0.00 67 1015.4
20181019014413 18 29 1.6 12.9 0.00 0.00 0.00 66 1015.5
20181019013913 18 38 1.6 9.7 0.00 0.00 0.00 66 1015.7
20181019011913 18 84 4.8 12.9 0.00 0.00 0.00 67 1015.7
20181019011414 18 43 6.4 12.9 0.00 0.00 0.00 67 1015.7
20181019010914 18 54 3.2 12.9 0.00 0.00 0.00 67 1015.8
20181019010413 18 123 3.2 9.7 0.00 0.00 0.00 67 1015.8
20181019004914 18 17 4.8 9.7 0.00 0.00 0.00 68 1015.8
20181019004414 18 94 1.6 3.2 0.00 0.00 0.00 68 1015.8
20181019003913 18 115 1.6 3.2 0.00 0.00 0.00 68 1015.8
20181019003414 18 37 3.2 8.0 0.00 0.00 0.00 68 1015.8
20181019001414 19 4 3.2 9.7 0.00 0.00 0.00 65 1015.8
20181019000913 19 354 3.2 19.3 0.00 0.00 0.00 64 1015.8
20181018234913 19 354 3.2 9.7 0.00 0.00 0.00 65 1015.8
20181018233914 19 51 9.7 19.3 0.00 0.00 0.00 65 1015.7
20181018233413 19 60 11.3 20.9 0.00 0.00 0.00 65 1015.6
20181018231913 19 53 11.3 24.1 0.00 0.00 0.00 65 1015.6
20181018231413 19 51 8.0 16.1 0.00 0.00 0.00 64 1015.5
20181018230914 19 34 6.4 16.1 0.00 0.00 0.00 64 1015.5
20181018230413 20 47 14.5 32.2 0.00 0.00 0.00 64 1015.4
20181018224913 20 48 11.3 22.5 0.00 0.00 0.00 63 1015.4
20181018223413 20 92 4.8 27.4 0.00 0.00 0.00 63 1015.4
20181018221914 20 60 11.3 22.5 0.00 0.00 0.00 63 1015.3
20181018221412 20 32 12.9 24.1 0.00 0.00 0.00 62 1015.3
20181018220913 20 61 9.7 20.9 0.00 0.00 0.00 62 1015.4
20181018214913 20 67 4.8 11.3 0.00 0.00 0.00 62 1015.2
20181018214413 20 55 6.4 22.5 0.00 0.00 0.00 62 1015.2
20181018213414 20 54 9.7 20.9 0.00 0.00 0.00 64 1015.2
20181018211914 20 42 11.3 19.3 0.00 0.00 0.00 64 1015.3
20181018211413 20 157 3.2 9.7 0.00 0.00 0.00 64 1015.3
20181018210914 20 52 6.4 11.3 0.00 0.00 0.00 63 1015.4
20181018210414 20 61 3.2 22.5 0.00 0.00 0.00 63 1015.4
20181018204913 20 15 8.0 12.9 0.00 0.00 0.00 63 1015.3
20181018204413 20 86 4.8 14.5 0.00 0.00 0.00 62 1015.2
20181018203912 20 119 11.3 24.1 0.00 0.00 0.00 62 1015.2
20181018203413 20 74 9.7 29.0 0.00 0.00 0.00 62 1015.1
20181018201913 20 30 4.8 25.7 0.00 0.00 0.00 63 1014.9
20181018201414 20 24 11.3 22.5 0.00 0.00 0.00 64 1014.8
20181018200413 19 43 4.8 14.5 0.00 0.00 0.00 66 1014.9
20181018194413 19 225 4.8 4.8 0.00 0.00 0.00 64 1014.7
20181018193913 19 229 3.2 3.2 0.00 0.00 0.00 64 1014.7
20181018193413 20 80 0.0 4.8 0.00 0.00 0.00 64 1014.6
20181018191913 20 233 3.2 4.8 0.00 0.00 0.00 64 1014.3
20181018190913 20 344 1.6 4.8 0.00 0.00 0.00 64 1014.3
20181018190413 20 28 1.6 9.7 0.00 0.00 0.00 63 1014.3
20181018184413 20 84 3.2 4.8 0.00 0.03 0.00 61 1014.3
20181018181413 21 120 0.0 8.0 0.00 0.03 0.00 58 1014.0
20181018174913 20 84 3.2 11.3 0.00 0.03 0.00 60 1013.9
20181018174413 20 66 9.7 14.5 0.00 0.03 0.00 60 1013.9
20181018173913 20 49 8.0 14.5 0.00 0.03 0.00 60 1013.9
20181018171912 21 56 14.5 24.1 0.00 0.03 0.00 60 1014.1
20181018171413 21 51 12.9 20.9 0.00 0.03 0.00 59 1014.0
20181018170912 21 62 11.3 24.1 0.00 0.03 0.00 58 1013.9
20181018170413 21 62 19.3 29.0 0.00 0.03 0.00 57 1013.8
20181018164413 21 335 3.2 19.3 0.00 0.03 0.00 60 1013.5
20181018163413 21 113 8.0 38.6 0.00 0.03 0.00 60 1013.2
20181018161913 21 89 8.0 19.3 0.00 0.03 0.00 60 1013.1
20181018160913 21 58 8.0 20.9 0.00 0.03 0.00 60 1013.0
20181018160413 21 39 16.1 40.2 0.00 0.03 0.00 59 1012.9
20181018154913 22 52 8.0 22.5 0.00 0.03 0.00 60 1013.0
20181018154413 22 55 14.5 25.7 0.00 0.03 0.00 59 1013.1
20181018153913 22 42 14.5 22.5 0.00 0.03 0.00 59 1013.0
20181018153413 22 38 14.5 32.2 0.00 0.03 0.00 58 1013.0
20181018151913 22 358 14.5 32.2 0.00 0.03 0.00 57 1013.1
20181018144413 23 6 19.3 35.4 0.00 0.03 0.00 56 1013.3
20181018143913 23 11 22.5 35.4 0.00 0.03 0.00 57 1013.3
20181018141413 23 5 11.3 29.0 0.00 0.03 0.00 57 1013.5
20181018140912 23 16 19.3 32.2 0.00 0.03 0.00 56 1013.5
20181018140412 23 11 14.5 35.4 0.00 0.03 0.00 56 1013.5
20181018134913 23 21 17.7 38.6 0.00 0.03 0.00 55 1013.6
20181018134414 23 25 16.1 37.0 0.00 0.03 0.00 56 1013.6
20181018133913 23 35 14.5 32.2 0.00 0.03 0.00 55 1013.5
20181018133414 23 46 16.1 32.2 0.00 0.03 0.00 54 1013.5
20181018131912 23 53 14.5 32.2 0.00 0.03 0.00 53 1013.4
20181018131413 23 16 14.5 27.4 0.00 0.03 0.00 53 1013.5
20181018130413 23 42 9.7 32.2 0.00 0.03 0.00 54 1013.4
20181018124912 24 1 20.9 32.2 0.00 0.03 0.00 53 1013.5
20181018124413 24 25 19.3 25.7 0.00 0.03 0.00 53 1013.6
20181018123913 24 29 14.5 32.2 0.00 0.03 0.00 54 1013.6
20181018121913 24 11 11.3 24.1 0.00 0.03 0.00 54 1013.8
20181018121412 24 36 9.7 19.3 0.00 0.03 0.00 54 1013.9
20181018120914 24 354 8.0 19.3 0.00 0.03 0.00 53 1013.9
20181018120413 23 344 12.9 27.4 0.00 0.03 0.00 54 1013.9